Terminal Aerodrome Forecast (TAF)

TAF

Data at: 2305 UTC 29 Nov 2020

TAF for:NVSC (Sola/Vanua Lava Arpt, TO, NV) issued at 2220 UTC 29 Nov 2020
Text:TAF NVSC 292220Z 3000/3024 VRB03KT 9999 BKN020 OVC040
Forecast period:0000 UTC 30 November 2020 to 0000 UTC 01 December 2020
Forecast type:FROM: standard forecast or significant change
Winds:variable direction winds at 3 MPH (3 knots; 1.5 m/s)
Visibility:6 or more sm (10+ km)
Ceiling:2000 feet AGL
Clouds: broken clouds at 2000 feet AGL, overcast cloud deck at 4000 feet AGL
Text:INTER 3000/3006 7000 -TSRA FEW010 BKN016 FEW025CB OVC038
Forecast period:0000 to 0600 UTC 30 November 2020
Forecast type:TEMPORARY: The following changes expected for less than half the time period
Visibility: 4 sm ( 7 km)
Ceiling:1600 feet AGL
Clouds: few clouds at 1000 feet AGL, broken clouds at 1600 feet AGL, few clouds at 2500 feet AGL
Weather:-TSRA (light rain associated with thunderstorm(s))

TAF

Data at: 2305 UTC 29 Nov 2020

TAF for:NVSG (Longana Arpt, PA, NV) issued at 2220 UTC 29 Nov 2020
Text:TAF NVSG 292220Z 3000/3024 VRB04KT 9999 BKN020 OVC040
Forecast period:0000 UTC 30 November 2020 to 0000 UTC 01 December 2020
Forecast type:FROM: standard forecast or significant change
Winds:variable direction winds at 5 MPH (4 knots; 2.1 m/s)
Visibility:6 or more sm (10+ km)
Ceiling:2000 feet AGL
Clouds: broken clouds at 2000 feet AGL, overcast cloud deck at 4000 feet AGL
Text:INTER 3000/3006 8000 SHRA FEW010 BKN018 OVC038
Forecast period:0000 to 0600 UTC 30 November 2020
Forecast type:TEMPORARY: The following changes expected for less than half the time period
Visibility: 5 sm ( 8 km)
Ceiling:1800 feet AGL
Clouds: few clouds at 1000 feet AGL, broken clouds at 1800 feet AGL, overcast cloud deck at 3800 feet AGL
Weather:SHRA (rain showers)

TAF

Data at: 2305 UTC 29 Nov 2020

TAF for:NVSS (Santo/Pekoa Intl, SA, NV) issued at 2220 UTC 29 Nov 2020
Text:TAF NVSS 292220Z 3000/3024 10008KT 9999 SCT020 OVC100
Forecast period:0000 UTC 30 November 2020 to 0000 UTC 01 December 2020
Forecast type:FROM: standard forecast or significant change
Winds:from the E (100 degrees) at 9 MPH (8 knots; 4.1 m/s)
Visibility:6 or more sm (10+ km)
Ceiling:10000 feet AGL
Clouds: scattered clouds at 2000 feet AGL, overcast cloud deck at 10000 feet AGL
Text:PROB40
Forecast period:0000 to 0600 UTC 30 November 2020
Forecast type:TEMPORARY: The following changes expected for less than half the time period
Visibility: 6 sm ( 9 km)
Ceiling:1800 feet AGL
Clouds: broken clouds at 1800 feet AGL, overcast cloud deck at 9000 feet AGL
Weather:-SHRA (light rain showers)

TAF

Data at: 2305 UTC 29 Nov 2020

TAF for:NVSL (Malekula Isl/Lamap, MA, NV) issued at 2220 UTC 29 Nov 2020
Text:TAF NVSL 292220Z 3000/3024 12008KT 9999 SCT020 OVC100
Forecast period:0000 UTC 30 November 2020 to 0000 UTC 01 December 2020
Forecast type:FROM: standard forecast or significant change
Winds:from the ESE (120 degrees) at 9 MPH (8 knots; 4.1 m/s)
Visibility:6 or more sm (10+ km)
Ceiling:10000 feet AGL
Clouds: scattered clouds at 2000 feet AGL, overcast cloud deck at 10000 feet AGL
Text:PROB40
Forecast period:0000 to 0600 UTC 30 November 2020
Forecast type:TEMPORARY: The following changes expected for less than half the time period
Visibility: 6 sm ( 9 km)
Ceiling:1800 feet AGL
Clouds: broken clouds at 1800 feet AGL, overcast cloud deck at 9000 feet AGL
Weather:-SHRA (light rain showers)

TAF

Data at: 2305 UTC 29 Nov 2020

TAF for:NVSP (Norsup Arpt, MA, NV) issued at 2220 UTC 29 Nov 2020
Text:TAF NVSP 292220Z 3000/3024 11006KT 9999 BKN020 OVC100
Forecast period:0000 UTC 30 November 2020 to 0000 UTC 01 December 2020
Forecast type:FROM: standard forecast or significant change
Winds:from the ESE (110 degrees) at 7 MPH (6 knots; 3.1 m/s)
Visibility:6 or more sm (10+ km)
Ceiling:2000 feet AGL
Clouds: broken clouds at 2000 feet AGL, overcast cloud deck at 10000 feet AGL
Text:PROB40
Forecast period:0000 to 0600 UTC 30 November 2020
Forecast type:TEMPORARY: The following changes expected for less than half the time period
Visibility: 6 sm ( 9 km)
Ceiling:1800 feet AGL
Clouds: broken clouds at 1800 feet AGL, overcast cloud deck at 9000 feet AGL
Weather:-SHRA (light rain showers)

TAF

Data at: 2305 UTC 29 Nov 2020

TAF for:NVVV (Efate/Bauerfield Int, SE, NV) issued at 2220 UTC 29 Nov 2020
Text:TAF NVVV 292220Z 3000/3024 12011KT 9999 SCT025
Forecast period:0000 UTC 30 November 2020 to 0000 UTC 01 December 2020
Forecast type:FROM: standard forecast or significant change
Winds:from the ESE (120 degrees) at 13 MPH (11 knots; 5.7 m/s)
Visibility:6 or more sm (10+ km)
Ceiling:at least 12,000 feet AGL
Clouds: scattered clouds at 2500 feet AGL

TAF

Data at: 2305 UTC 29 Nov 2020

TAF for:NVVW (Tanna Arpt, TA, NV) issued at 2220 UTC 29 Nov 2020
Text:TAF NVVW 292220Z 3000/3024 VRB04KT 9999 BKN025
Forecast period:0000 UTC 30 November 2020 to 0000 UTC 01 December 2020
Forecast type:FROM: standard forecast or significant change
Winds:variable direction winds at 5 MPH (4 knots; 2.1 m/s)
Visibility:6 or more sm (10+ km)
Ceiling:2500 feet AGL
Clouds: broken clouds at 2500 feet AGL

TAF

Data at: 2305 UTC 29 Nov 2020

TAF for:NVVA (Aneityum/Mystery Isl, TA, NV) issued at 2220 UTC 29 Nov 2020
Text:TAF NVVA 292220Z 3000/3024 VRB04KT 9999 BKN025
Forecast period:0000 UTC 30 November 2020 to 0000 UTC 01 December 2020
Forecast type:FROM: standard forecast or significant change
Winds:variable direction winds at 5 MPH (4 knots; 2.1 m/s)
Visibility:6 or more sm (10+ km)
Ceiling:2500 feet AGL
Clouds: broken clouds at 2500 feet AGL

TAF

Data at: 2305 UTC 29 Nov 2020

TAF NVVV 292220Z 3000/3024 12011KT 9999 SCT025
TAF NVSC 292220Z 3000/3024 VRB03KT 9999 BKN020 OVC040
  INTER 3000/3006 7000 -TSRA FEW010 BKN016 FEW025CB OVC038
TAF NVSG 292220Z 3000/3024 VRB04KT 9999 BKN020 OVC040
  INTER 3000/3006 8000 SHRA FEW010 BKN018 OVC038
TAF NVSS 292220Z 3000/3024 10008KT 9999 SCT020 OVC100
  PROB40
  INTER 3000/3006 9000 -SHRA BKN018 OVC090
TAF NVSL 292220Z 3000/3024 12008KT 9999 SCT020 OVC100
  PROB40
  INTER 3000/3006 9000 -SHRA BKN018 OVC090
TAF NVSP 292220Z 3000/3024 11006KT 9999 BKN020 OVC100
  PROB40
  INTER 3000/3006 9000 -SHRA BKN018 OVC090
TAF NVVW 292220Z 3000/3024 VRB04KT 9999 BKN025
TAF NVVA 292220Z 3000/3024 VRB04KT 9999 BKN025